createdAt,value
2017-12-01T00:02:24.184Z,9.10
2017-12-01T00:04:51.623Z,8.60
2017-12-01T00:07:19.818Z,8.03
2017-12-01T00:09:47.255Z,9.63
2017-12-01T00:12:15.446Z,9.23
2017-12-01T00:14:42.892Z,7.83
2017-12-01T00:17:11.085Z,8.43
2017-12-01T00:19:38.515Z,6.97
2017-12-01T00:22:06.718Z,7.70
2017-12-01T00:24:34.166Z,8.63
2017-12-01T00:27:01.603Z,9.57
2017-12-01T00:29:29.807Z,8.80
2017-12-01T00:31:57.242Z,9.07
2017-12-01T00:34:24.676Z,9.20
2017-12-01T00:36:52.874Z,9.93
2017-12-01T00:39:20.311Z,10.00
2017-12-01T00:41:48.519Z,9.13
2017-12-01T00:44:15.955Z,8.30
2017-12-01T00:46:43.395Z,8.20
2017-12-01T00:49:11.590Z,7.70
2017-12-01T00:51:39.033Z,9.83
2017-12-01T00:54:07.232Z,7.70
2017-12-01T00:56:34.672Z,9.37
2017-12-01T00:59:02.112Z,8.33
2017-12-01T01:01:30.319Z,10.50
2017-12-01T01:03:57.756Z,9.13
2017-12-01T01:06:25.968Z,10.33
2017-12-01T01:08:53.398Z,9.67
2017-12-01T01:11:20.831Z,9.80
2017-12-01T01:13:49.027Z,9.10
2017-12-01T01:16:16.464Z,8.70
2017-12-01T01:18:44.660Z,8.50
2017-12-01T01:21:12.096Z,10.53
2017-12-01T01:23:40.286Z,9.43
2017-12-01T01:26:07.722Z,7.80
2017-12-01T01:28:35.918Z,8.23
2017-12-01T01:31:03.351Z,9.23
2017-12-01T01:33:31.552Z,7.90
2017-12-01T01:35:59.006Z,8.37
2017-12-01T01:38:26.439Z,9.80
2017-12-01T01:40:54.644Z,9.07
2017-12-01T01:43:22.088Z,8.43
2017-12-01T01:45:49.543Z,7.70
2017-12-01T01:48:16.982Z,8.90
2017-12-01T01:50:45.183Z,6.67
2017-12-01T01:53:12.615Z,8.60
2017-12-01T01:55:40.817Z,9.47
2017-12-01T01:58:08.251Z,8.10
2017-12-01T02:00:35.750Z,9.10
2017-12-01T02:03:03.190Z,8.57
2017-12-01T02:05:30.619Z,8.70
2017-12-01T02:07:58.819Z,9.40
2017-12-01T02:10:26.263Z,11.30
2017-12-01T02:12:53.703Z,8.93
2017-12-01T02:15:21.902Z,8.83
2017-12-01T02:17:49.346Z,9.83
2017-12-01T02:20:16.781Z,8.73
2017-12-01T02:22:44.984Z,9.57
2017-12-01T02:25:12.413Z,10.10
2017-12-01T02:27:40.620Z,10.30
2017-12-01T02:30:08.052Z,8.83
2017-12-01T02:32:36.260Z,9.47
2017-12-01T02:35:03.708Z,10.50
2017-12-01T02:37:31.142Z,8.70
2017-12-01T02:39:58.575Z,8.70
2017-12-01T02:42:26.775Z,8.53
2017-12-01T02:44:54.212Z,10.07
2017-12-01T02:47:22.406Z,9.77
2017-12-01T02:49:49.884Z,8.00
2017-12-01T02:52:17.325Z,8.20
2017-12-01T02:54:49.254Z,9.97
2017-12-01T02:57:17.454Z,8.43
2017-12-01T02:59:44.890Z,10.13
2017-12-01T03:02:13.090Z,9.77
2017-12-01T03:04:40.532Z,10.33
2017-12-01T03:07:08.728Z,10.50
2017-12-01T03:09:36.164Z,8.80
2017-12-01T03:12:04.351Z,8.10
2017-12-01T03:14:31.786Z,9.60
2017-12-01T03:17:00.024Z,11.60
2017-12-01T03:19:27.475Z,10.80
2017-12-01T03:21:54.912Z,9.77
2017-12-01T03:24:22.346Z,9.57
2017-12-01T03:26:49.779Z,9.57
2017-12-01T03:29:17.992Z,10.90
2017-12-01T03:31:45.432Z,10.03
2017-12-01T03:34:12.868Z,10.30
2017-12-01T03:36:41.102Z,10.60
2017-12-01T03:39:08.534Z,9.87
2017-12-01T03:41:35.974Z,13.13
2017-12-01T03:44:03.414Z,9.73
2017-12-01T03:46:31.615Z,11.97
2017-12-01T03:48:59.059Z,10.97
2017-12-01T03:51:26.491Z,10.90
2017-12-01T03:53:54.712Z,11.33
2017-12-01T03:56:22.147Z,10.77
2017-12-01T03:58:49.586Z,11.57
2017-12-01T04:01:17.795Z,11.27
2017-12-01T04:03:45.234Z,10.70
2017-12-01T04:06:12.672Z,11.20
2017-12-01T04:08:40.903Z,11.60
2017-12-01T04:11:08.347Z,12.43
2017-12-01T04:13:35.788Z,11.23
2017-12-01T04:16:03.231Z,11.30
2017-12-01T04:18:30.667Z,16.03
2017-12-01T04:20:58.883Z,12.13
2017-12-01T04:23:26.311Z,14.27
2017-12-01T04:25:53.759Z,13.97
2017-12-01T04:28:22.067Z,12.20
2017-12-01T04:30:49.491Z,14.30
2017-12-01T04:33:17.711Z,14.23
2017-12-01T04:35:45.147Z,13.37
2017-12-01T04:38:12.583Z,13.70
2017-12-01T04:40:40.789Z,14.23
2017-12-01T04:43:08.231Z,14.27
2017-12-01T04:45:35.671Z,14.27
2017-12-01T04:48:03.119Z,16.80
2017-12-01T04:50:31.329Z,12.13
2017-12-01T04:52:58.767Z,13.33
2017-12-01T04:55:26.217Z,13.27
2017-12-01T04:57:53.650Z,17.43
2017-12-01T05:00:21.859Z,15.77
2017-12-01T05:02:49.304Z,17.63
2017-12-01T05:05:17.507Z,17.97
2017-12-01T05:07:44.952Z,13.90
2017-12-01T05:10:12.400Z,18.60
2017-12-01T05:12:39.844Z,16.63
2017-12-01T05:15:08.150Z,16.97
2017-12-01T05:17:35.499Z,15.53
2017-12-01T05:20:03.008Z,14.10
2017-12-01T05:22:31.963Z,15.40
2017-12-01T05:24:59.395Z,15.93
2017-12-01T05:27:26.892Z,13.90
2017-12-01T05:29:54.331Z,13.80
2017-12-01T05:32:21.792Z,14.03
2017-12-01T05:34:49.923Z,15.07
2017-12-01T05:37:18.135Z,14.57
2017-12-01T05:39:45.577Z,14.83
2017-12-01T05:42:13.016Z,15.60
2017-12-01T05:44:40.459Z,15.83
2017-12-01T05:47:08.671Z,15.80
2017-12-01T05:49:36.143Z,16.13
2017-12-01T05:52:03.584Z,14.43
2017-12-01T05:54:31.059Z,14.13
2017-12-01T05:56:58.504Z,15.67
2017-12-01T05:59:25.944Z,13.37
2017-12-01T06:01:53.427Z,15.47
2017-12-01T06:04:20.873Z,13.37
2017-12-01T06:06:48.312Z,10.90
2017-12-01T06:09:15.773Z,10.07
2017-12-01T06:11:43.211Z,10.47
2017-12-01T06:14:10.655Z,11.77
2017-12-01T06:16:38.868Z,11.23
2017-12-01T06:19:06.298Z,9.53
2017-12-01T06:21:33.747Z,10.30
2017-12-01T06:24:01.971Z,10.87
2017-12-01T06:26:29.625Z,10.10
2017-12-01T06:28:57.060Z,11.60
2017-12-01T06:31:24.503Z,10.00
2017-12-01T06:33:51.999Z,11.40
2017-12-01T06:36:19.440Z,12.03
2017-12-01T06:38:46.883Z,10.50
2017-12-01T06:41:14.331Z,11.93
2017-12-01T06:43:41.775Z,12.43
2017-12-01T06:46:09.984Z,11.63
2017-12-01T06:48:37.423Z,11.23
2017-12-01T06:51:04.916Z,12.47
2017-12-01T06:53:32.356Z,11.07
2017-12-01T06:55:59.800Z,11.93
2017-12-01T06:58:27.234Z,11.30
2017-12-01T07:00:54.680Z,11.83
2017-12-01T07:03:22.884Z,9.93
2017-12-01T07:05:50.320Z,10.83
2017-12-01T07:08:17.764Z,11.47
2017-12-01T07:10:45.967Z,10.57
2017-12-01T07:13:13.420Z,11.30
2017-12-01T07:15:40.859Z,11.13
2017-12-01T07:18:09.076Z,12.20
2017-12-01T07:20:36.539Z,12.40
2017-12-01T07:23:03.979Z,10.83
2017-12-01T07:25:31.427Z,16.20
2017-12-01T07:27:58.872Z,13.40
2017-12-01T07:30:26.310Z,12.40
2017-12-01T07:32:54.511Z,13.07
2017-12-01T07:35:21.974Z,14.40
2017-12-01T07:37:49.406Z,12.87
2017-12-01T07:40:17.607Z,13.90
2017-12-01T07:42:45.047Z,13.73
2017-12-01T07:45:12.483Z,12.30
2017-12-01T07:47:40.694Z,12.27
2017-12-01T07:50:08.133Z,13.00
2017-12-01T07:52:35.579Z,11.93
2017-12-01T07:55:03.787Z,10.73
2017-12-01T07:57:31.232Z,9.93
2017-12-01T07:59:58.672Z,11.00
2017-12-01T08:02:26.602Z,12.73
2017-12-01T08:04:54.042Z,11.60
2017-12-01T08:07:22.246Z,11.30
2017-12-01T08:09:51.371Z,11.50
2017-12-01T08:12:18.798Z,14.20
2017-12-01T08:14:47.006Z,12.00
2017-12-01T08:17:26.419Z,13.23
2017-12-01T08:19:54.627Z,13.60
2017-12-01T08:22:34.022Z,13.03
2017-12-01T08:25:14.107Z,15.57
2017-12-01T08:27:41.538Z,12.60
2017-12-01T08:30:09.748Z,12.93
2017-12-01T08:32:37.179Z,13.00
2017-12-01T08:35:04.976Z,12.27
2017-12-01T08:37:32.424Z,11.80
2017-12-01T08:40:00.358Z,9.70
2017-12-01T08:42:28.583Z,11.33
2017-12-01T08:44:56.027Z,10.20
2017-12-01T08:47:23.458Z,11.00
2017-12-01T08:49:50.898Z,11.10
2017-12-01T08:52:19.102Z,11.90
2017-12-01T08:54:46.533Z,13.50
2017-12-01T08:57:14.734Z,12.47
2017-12-01T08:59:42.183Z,11.27
2017-12-01T09:02:09.620Z,11.40
2017-12-01T09:04:37.826Z,12.93
2017-12-01T09:07:05.258Z,10.77
2017-12-01T09:09:32.698Z,11.50
2017-12-01T09:12:00.904Z,13.90
2017-12-01T09:14:28.346Z,13.27
2017-12-01T09:16:55.774Z,10.07
2017-12-01T09:19:23.214Z,10.23
2017-12-01T09:21:50.762Z,11.57
2017-12-01T09:24:18.194Z,9.73
2017-12-01T09:26:45.626Z,9.47
2017-12-01T09:29:13.070Z,11.37
2017-12-01T09:31:41.275Z,11.30
2017-12-01T09:34:08.711Z,10.83
2017-12-01T09:36:36.210Z,10.67
2017-12-01T09:39:03.656Z,13.33
2017-12-01T09:41:31.106Z,12.07
2017-12-01T09:43:58.543Z,11.47
2017-12-01T09:46:25.983Z,11.07
2017-12-01T09:48:54.183Z,9.63
2017-12-01T09:51:21.614Z,9.73
2017-12-01T09:53:49.816Z,10.77
2017-12-01T09:56:17.255Z,8.80
2017-12-01T09:58:44.678Z,10.00
2017-12-01T10:01:12.111Z,9.37
2017-12-01T10:03:39.909Z,9.63
2017-12-01T10:06:07.343Z,10.40
2017-12-01T10:08:34.778Z,10.43
2017-12-01T10:11:02.219Z,9.77
2017-12-01T10:13:29.702Z,12.73
2017-12-01T10:15:57.150Z,13.60
2017-12-01T10:18:24.578Z,10.67
2017-12-01T10:20:52.019Z,10.13
2017-12-01T10:23:19.455Z,10.50
2017-12-01T10:25:46.895Z,11.00
2017-12-01T10:28:15.852Z,10.63
2017-12-01T10:30:43.322Z,11.10
2017-12-01T10:33:10.763Z,11.67
2017-12-01T10:35:38.206Z,10.13
2017-12-01T10:38:05.674Z,11.03
2017-12-01T10:40:33.099Z,11.73
2017-12-01T10:43:01.952Z,11.70
2017-12-01T10:45:29.390Z,12.37
2017-12-01T10:47:56.892Z,10.97
2017-12-01T10:50:25.100Z,11.10
2017-12-01T10:52:52.543Z,11.27
2017-12-01T10:55:20.139Z,13.03
2017-12-01T10:57:47.586Z,11.33
2017-12-01T11:00:15.011Z,9.77
2017-12-01T11:02:42.457Z,10.50
2017-12-01T11:05:10.657Z,12.70
2017-12-01T11:07:38.144Z,10.67
2017-12-01T11:10:05.582Z,11.20
2017-12-01T11:12:33.055Z,9.80
2017-12-01T11:15:00.493Z,8.53
2017-12-01T11:17:27.923Z,8.47
2017-12-01T11:19:55.362Z,8.30
2017-12-01T11:22:23.555Z,8.90
2017-12-01T11:24:50.995Z,8.87
2017-12-01T11:27:19.199Z,11.07
2017-12-01T11:29:46.682Z,11.53
2017-12-01T11:32:14.118Z,15.10
2017-12-01T11:34:41.559Z,8.40
2017-12-01T11:37:08.982Z,9.87
2017-12-01T11:39:36.510Z,11.03
2017-12-01T11:42:03.942Z,10.87
2017-12-01T11:44:31.374Z,9.63
2017-12-01T11:46:59.600Z,9.37
2017-12-01T11:49:27.034Z,10.33
2017-12-01T11:51:54.511Z,10.40
2017-12-01T11:54:22.013Z,10.23
2017-12-01T11:56:49.391Z,10.97
2017-12-01T11:59:16.821Z,10.10
2017-12-01T12:01:45.024Z,9.87
2017-12-01T12:04:12.451Z,8.47
2017-12-01T12:06:40.654Z,10.90
2017-12-01T12:09:08.694Z,11.43
2017-12-01T12:11:36.904Z,11.07
2017-12-01T12:14:04.330Z,9.80
2017-12-01T12:16:32.536Z,7.97
2017-12-01T12:18:59.967Z,7.93
2017-12-01T12:21:28.162Z,9.20
2017-12-01T12:23:55.612Z,12.47
2017-12-01T12:26:23.058Z,11.80
2017-12-01T12:28:50.494Z,12.10
2017-12-01T12:31:18.702Z,12.27
2017-12-01T12:33:46.134Z,10.07
2017-12-01T12:36:14.331Z,9.87
2017-12-01T12:38:41.771Z,11.37
2017-12-01T12:41:09.974Z,11.87
2017-12-01T12:43:37.410Z,10.70
2017-12-01T12:46:04.851Z,10.37
2017-12-01T12:48:33.052Z,11.20
2017-12-01T12:51:00.490Z,12.23
2017-12-01T12:53:28.638Z,12.80
2017-12-01T12:55:56.135Z,10.43
2017-12-01T12:58:23.576Z,11.70
2017-12-01T13:00:51.047Z,12.30
2017-12-01T13:03:18.489Z,11.40
2017-12-01T13:05:46.682Z,12.30
2017-12-01T13:08:14.126Z,11.30
2017-12-01T13:10:41.565Z,11.50
2017-12-01T13:13:09.763Z,9.57
2017-12-01T13:15:37.202Z,10.70
2017-12-01T13:18:05.423Z,11.90
2017-12-01T13:20:32.858Z,11.23
2017-12-01T13:23:00.302Z,11.87
2017-12-01T13:25:27.742Z,14.77
2017-12-01T13:27:56.560Z,12.93
2017-12-01T13:30:23.999Z,13.10
2017-12-01T13:32:51.494Z,11.87
2017-12-01T13:35:18.947Z,11.33
2017-12-01T13:37:46.402Z,11.93
2017-12-01T13:40:14.509Z,11.60
2017-12-01T13:42:41.946Z,11.37
2017-12-01T13:45:09.381Z,13.90
2017-12-01T13:47:36.823Z,14.87
2017-12-01T13:50:04.263Z,13.53
2017-12-01T13:52:31.763Z,12.90
2017-12-01T13:54:59.203Z,12.17
2017-12-01T13:57:26.647Z,11.77
2017-12-01T13:59:54.082Z,12.93
2017-12-01T14:02:22.290Z,11.50
2017-12-01T14:04:49.727Z,12.70
2017-12-01T14:07:17.168Z,12.33
2017-12-01T14:09:45.371Z,12.30
2017-12-01T14:12:12.810Z,11.83
2017-12-01T14:14:40.275Z,10.87
2017-12-01T14:17:07.755Z,12.70
2017-12-01T14:19:35.191Z,13.00
2017-12-01T14:22:02.639Z,12.70
2017-12-01T14:24:30.068Z,13.20
2017-12-01T14:26:58.267Z,12.60
2017-12-01T14:29:25.715Z,14.17
2017-12-01T14:31:53.915Z,12.93
2017-12-01T14:34:22.123Z,13.47
2017-12-01T14:36:49.558Z,13.23
2017-12-01T14:39:17.002Z,13.53
2017-12-01T14:41:44.442Z,16.47
2017-12-01T14:44:11.882Z,15.60
2017-12-01T14:46:40.086Z,15.60
2017-12-01T14:49:07.534Z,15.20
2017-12-01T14:51:34.970Z,13.70
2017-12-01T14:54:03.170Z,14.00
2017-12-01T14:56:30.618Z,12.43
2017-12-01T14:58:58.050Z,13.53
2017-12-01T15:01:26.278Z,12.30
2017-12-01T15:03:53.716Z,10.73
2017-12-01T15:06:21.147Z,10.67
2017-12-01T15:08:48.590Z,12.07
2017-12-01T15:11:16.795Z,13.43
2017-12-01T15:13:44.239Z,13.47
2017-12-01T15:16:11.678Z,13.60
2017-12-01T15:18:39.907Z,12.47
2017-12-01T15:21:07.343Z,12.60
2017-12-01T15:23:34.783Z,16.03
2017-12-01T15:26:02.220Z,13.97
2017-12-01T15:28:30.427Z,16.40
2017-12-01T15:30:57.910Z,14.27
2017-12-01T15:33:26.170Z,13.90
2017-12-01T15:35:53.640Z,17.33
2017-12-01T15:38:21.071Z,15.90
2017-12-01T15:40:48.788Z,14.70
2017-12-01T15:43:16.218Z,14.73
2017-12-01T15:45:43.658Z,14.77
2017-12-01T15:48:11.104Z,17.10
2017-12-01T15:50:38.555Z,16.07
2017-12-01T15:53:05.999Z,14.20
2017-12-01T15:55:33.438Z,15.20
2017-12-01T15:58:01.649Z,15.63
2017-12-01T16:00:29.094Z,14.20
2017-12-01T16:02:56.779Z,15.50
2017-12-01T16:05:24.223Z,14.83
2017-12-01T16:07:51.659Z,14.30
2017-12-01T16:10:19.098Z,14.83
2017-12-01T16:12:47.297Z,13.03
2017-12-01T16:15:14.741Z,14.17
2017-12-01T16:17:43.274Z,15.23
2017-12-01T16:20:10.719Z,13.90
2017-12-01T16:22:38.156Z,16.00
2017-12-01T16:25:05.594Z,14.40
2017-12-01T16:27:33.895Z,15.70
2017-12-01T16:30:01.335Z,15.90
2017-12-01T16:32:28.770Z,14.17
2017-12-01T16:34:56.978Z,18.53
2017-12-01T16:37:24.421Z,19.37
2017-12-01T16:39:51.857Z,20.00
2017-12-01T16:42:20.065Z,18.50
2017-12-01T16:44:47.502Z,17.43
2017-12-01T16:47:14.939Z,65.97
2017-12-01T16:49:43.155Z,28.40
2017-12-01T16:52:10.587Z,17.77
2017-12-01T16:54:38.023Z,15.70
2017-12-01T16:57:06.234Z,13.83
2017-12-01T16:59:33.684Z,14.90
2017-12-01T17:02:02.303Z,15.23
2017-12-01T17:04:29.743Z,16.83
2017-12-01T17:06:57.193Z,16.03
2017-12-01T17:11:59.838Z,15.87
2017-12-01T17:14:27.279Z,17.03
2017-12-01T17:16:54.728Z,14.33
2017-12-01T17:19:22.167Z,17.37
2017-12-01T17:21:49.611Z,14.70
2017-12-01T17:24:17.067Z,13.30
2017-12-01T17:26:44.502Z,16.63
2017-12-01T17:29:11.943Z,17.10
2017-12-01T17:31:40.146Z,19.97
2017-12-01T17:34:07.627Z,17.13
2017-12-01T17:36:35.998Z,13.30
2017-12-01T17:39:03.433Z,15.27
2017-12-01T17:41:30.920Z,16.07
2017-12-01T17:43:58.354Z,15.50
2017-12-01T17:46:25.794Z,16.07
2017-12-01T17:48:53.234Z,29.40
2017-12-01T17:51:21.442Z,22.70
2017-12-01T17:53:48.882Z,22.17
2017-12-01T17:56:16.332Z,22.27
2017-12-01T17:58:44.530Z,23.10
2017-12-01T18:01:11.975Z,28.73
2017-12-01T18:03:39.420Z,23.73
2017-12-01T18:06:07.842Z,16.80
2017-12-01T18:08:35.286Z,20.60
2017-12-01T18:11:02.727Z,18.43
2017-12-01T18:13:30.172Z,22.50
2017-12-01T18:15:57.606Z,20.60
2017-12-01T18:18:25.841Z,22.13
2017-12-01T18:20:53.275Z,21.93
2017-12-01T18:23:20.722Z,23.03
2017-12-01T18:25:48.162Z,24.67
2017-12-01T18:28:16.371Z,21.27
2017-12-01T18:30:43.814Z,16.90
2017-12-01T18:33:11.263Z,20.37
2017-12-01T18:35:38.698Z,20.40
2017-12-01T18:38:06.912Z,24.70
2017-12-01T18:40:34.347Z,16.83
2017-12-01T18:43:02.138Z,18.53
2017-12-01T18:45:29.579Z,17.43
2017-12-01T18:47:57.019Z,17.50
2017-12-01T18:50:24.455Z,17.30
2017-12-01T18:52:52.668Z,16.97
2017-12-01T18:55:20.102Z,19.53
2017-12-01T18:57:47.547Z,19.00
2017-12-01T19:00:15.753Z,16.60
2017-12-01T19:02:43.190Z,24.00
2017-12-01T19:05:10.631Z,21.70
2017-12-01T19:07:38.834Z,20.50
2017-12-01T19:10:06.282Z,21.70
2017-12-01T19:12:33.774Z,44.20
2017-12-01T19:15:02.031Z,35.47
2017-12-01T19:17:29.483Z,28.10
2017-12-01T19:19:56.923Z,30.37
2017-12-01T19:22:24.861Z,28.37
2017-12-01T19:24:53.061Z,26.87
2017-12-01T19:27:21.262Z,25.40
2017-12-01T19:29:48.744Z,31.33
2017-12-01T19:32:16.175Z,26.37
2017-12-01T19:34:43.614Z,25.97
2017-12-01T19:37:11.062Z,28.87
2017-12-01T19:39:38.504Z,27.77
2017-12-01T19:42:06.820Z,25.80
2017-12-01T19:44:34.293Z,26.20
2017-12-01T19:47:01.715Z,26.77
2017-12-01T19:49:29.154Z,27.20
2017-12-01T19:51:57.355Z,32.57
2017-12-01T19:54:24.839Z,28.83
2017-12-01T19:56:52.274Z,23.80
2017-12-01T19:59:19.754Z,27.00
2017-12-01T20:01:47.695Z,29.40
2017-12-01T20:04:15.141Z,30.73
2017-12-01T20:06:42.604Z,31.03
2017-12-01T20:09:10.048Z,29.23
2017-12-01T20:11:38.249Z,33.73
2017-12-01T20:14:05.690Z,28.17
2017-12-01T20:16:33.827Z,34.40
2017-12-01T20:19:01.274Z,29.43
2017-12-01T20:21:28.706Z,32.77
2017-12-01T20:23:56.447Z,29.73
2017-12-01T20:26:23.877Z,27.17
2017-12-01T20:28:52.082Z,27.70
2017-12-01T20:31:19.520Z,27.43
2017-12-01T20:33:47.325Z,25.53
2017-12-01T20:36:14.742Z,26.23
2017-12-01T20:38:42.224Z,26.23
2017-12-01T20:41:09.664Z,26.27
2017-12-01T20:43:37.100Z,29.07
2017-12-01T20:46:05.307Z,26.13
2017-12-01T20:48:32.746Z,26.87
2017-12-01T20:51:00.230Z,27.20
2017-12-01T20:53:27.666Z,25.27
2017-12-01T20:55:55.160Z,28.13
2017-12-01T20:58:22.587Z,23.33
2017-12-01T21:00:50.071Z,26.50
2017-12-01T21:03:17.498Z,26.70
2017-12-01T21:05:44.943Z,33.40
2017-12-01T21:08:12.374Z,28.27
2017-12-01T21:10:40.582Z,31.40
2017-12-01T21:13:08.054Z,32.03
2017-12-01T21:15:35.498Z,30.10
2017-12-01T21:18:02.933Z,29.60
2017-12-01T21:20:31.127Z,31.07
2017-12-01T21:22:58.565Z,31.30
2017-12-01T21:25:26.365Z,30.27
2017-12-01T21:27:53.795Z,30.20
2017-12-01T21:30:22.799Z,33.13
2017-12-01T21:32:50.240Z,31.70
2017-12-01T21:35:17.682Z,32.60
2017-12-01T21:37:45.119Z,32.53
2017-12-01T21:40:13.332Z,32.03
2017-12-01T21:42:40.770Z,31.87
2017-12-01T21:45:08.215Z,28.97
2017-12-01T21:47:36.422Z,32.63
2017-12-01T21:50:03.894Z,29.43
2017-12-01T21:52:31.331Z,28.10
2017-12-01T21:54:58.763Z,33.20
2017-12-01T21:57:27.045Z,35.57
2017-12-01T21:59:54.482Z,30.67
2017-12-01T22:02:22.699Z,35.50
2017-12-01T22:04:50.174Z,37.23
2017-12-01T22:07:17.622Z,40.93
2017-12-01T22:09:45.050Z,37.10
2017-12-01T22:12:12.495Z,36.47
2017-12-01T22:14:40.699Z,29.27
2017-12-01T22:17:08.139Z,36.43
2017-12-01T22:19:35.569Z,40.50
2017-12-01T22:22:03.794Z,35.23
2017-12-01T22:24:31.222Z,38.80
2017-12-01T22:26:58.662Z,38.00
2017-12-01T22:29:26.861Z,36.17
2017-12-01T22:31:54.303Z,37.83
2017-12-01T22:34:21.738Z,38.10
2017-12-01T22:36:49.186Z,36.50
2017-12-01T22:39:16.714Z,39.47
2017-12-01T22:41:44.159Z,37.10
2017-12-01T22:44:11.598Z,32.97
2017-12-01T22:46:39.042Z,35.10
2017-12-01T22:49:06.523Z,42.47
2017-12-01T22:51:33.947Z,35.30
2017-12-01T22:54:02.142Z,38.57
2017-12-01T22:56:29.585Z,34.80
2017-12-01T22:58:57.786Z,38.37
2017-12-01T23:01:25.231Z,38.33
2017-12-01T23:03:52.670Z,38.60
2017-12-01T23:06:20.111Z,36.90
2017-12-01T23:08:48.327Z,40.43
2017-12-01T23:11:15.759Z,35.43
2017-12-01T23:13:43.203Z,38.83
2017-12-01T23:16:11.401Z,38.17
2017-12-01T23:18:38.848Z,37.77
2017-12-01T23:21:06.294Z,38.83
2017-12-01T23:23:34.519Z,37.60
2017-12-01T23:26:01.967Z,38.73
2017-12-01T23:28:29.413Z,39.60
2017-12-01T23:30:56.886Z,36.63
2017-12-01T23:33:24.334Z,37.37
2017-12-01T23:35:51.770Z,33.37
2017-12-01T23:38:19.222Z,35.77
2017-12-01T23:40:46.650Z,33.47
2017-12-01T23:43:14.870Z,34.80
2017-12-01T23:45:42.299Z,37.13
2017-12-01T23:48:09.742Z,33.43
2017-12-01T23:50:37.944Z,34.10
2017-12-01T23:53:05.382Z,34.13
2017-12-01T23:55:33.591Z,32.77
2017-12-01T23:58:01.046Z,35.63
